Terminal Aerodrome Forecast
Issued by NWS Topeka, KS

Home | Current Version | Previous Version | Text Only | Print | Product List | Glossary On
Versions: 1 2 3 4 5 6 7 8 9 10 11 12 13 14 15 16 17
323
FTUS43 KTOP 251720
TAFTOP
TAF
KTOP 251720Z 2518/2618 33007KT P6SM SCT040 OVC080
     FM252000 31005KT P6SM BKN250=

USA.gov is the U.S. government's official web portal to all federal, state and local government web resources and services.